sensor_id;sensor_type;location;lat;lon;timestamp;temperature;humidity
49385;DHT22;36795;45.028;38.968;2022-09-28T00:01:16;20.00;61.60
49385;DHT22;36795;45.028;38.968;2022-09-28T00:04:03;20.00;61.80
49385;DHT22;36795;45.028;38.968;2022-09-28T00:06:51;20.00;62.00
49385;DHT22;36795;45.028;38.968;2022-09-28T00:09:37;20.00;62.10
49385;DHT22;36795;45.028;38.968;2022-09-28T00:12:23;20.00;62.40
49385;DHT22;36795;45.028;38.968;2022-09-28T00:15:09;20.00;62.60
49385;DHT22;36795;45.028;38.968;2022-09-28T00:17:56;20.00;62.70
49385;DHT22;36795;45.028;38.968;2022-09-28T00:20:42;20.00;62.90
49385;DHT22;36795;45.028;38.968;2022-09-28T00:23:28;20.10;63.20
49385;DHT22;36795;45.028;38.968;2022-09-28T00:26:14;20.00;63.70
49385;DHT22;36795;45.028;38.968;2022-09-28T00:29:01;20.10;64.20
49385;DHT22;36795;45.028;38.968;2022-09-28T00:31:47;20.10;64.30
49385;DHT22;36795;45.028;38.968;2022-09-28T00:34:42;20.10;64.40
49385;DHT22;36795;45.028;38.968;2022-09-28T00:37:30;20.20;64.80
49385;DHT22;36795;45.028;38.968;2022-09-28T00:40:17;20.20;64.80
49385;DHT22;36795;45.028;38.968;2022-09-28T00:43:19;20.30;65.30
49385;DHT22;36795;45.028;38.968;2022-09-28T00:46:15;20.20;65.00
49385;DHT22;36795;45.028;38.968;2022-09-28T00:49:06;20.20;65.40
49385;DHT22;36795;45.028;38.968;2022-09-28T00:51:55;20.10;65.70
49385;DHT22;36795;45.028;38.968;2022-09-28T00:54:43;20.10;65.80
49385;DHT22;36795;45.028;38.968;2022-09-28T00:57:31;20.10;65.90
49385;DHT22;36795;45.028;38.968;2022-09-28T01:00:18;20.10;66.20
49385;DHT22;36795;45.028;38.968;2022-09-28T01:03:04;20.00;66.30
49385;DHT22;36795;45.028;38.968;2022-09-28T01:05:51;20.00;66.50
49385;DHT22;36795;45.028;38.968;2022-09-28T01:08:38;20.00;66.60
49385;DHT22;36795;45.028;38.968;2022-09-28T01:11:26;20.00;66.60
49385;DHT22;36795;45.028;38.968;2022-09-28T01:14:14;20.00;66.60
49385;DHT22;36795;45.028;38.968;2022-09-28T01:23:31;20.00;66.10
49385;DHT22;36795;45.028;38.968;2022-09-28T01:26:55;20.10;65.80
49385;DHT22;36795;45.028;38.968;2022-09-28T01:29:53;20.20;65.80
49385;DHT22;36795;45.028;38.968;2022-09-28T01:32:55;20.10;65.70
49385;DHT22;36795;45.028;38.968;2022-09-28T01:35:48;20.00;66.00
49385;DHT22;36795;45.028;38.968;2022-09-28T01:38:42;20.10;66.10
49385;DHT22;36795;45.028;38.968;2022-09-28T01:41:34;20.10;66.10
49385;DHT22;36795;45.028;38.968;2022-09-28T01:44:23;20.10;66.30
49385;DHT22;36795;45.028;38.968;2022-09-28T01:47:15;20.10;66.40
49385;DHT22;36795;45.028;38.968;2022-09-28T01:50:15;20.00;66.60
49385;DHT22;36795;45.028;38.968;2022-09-28T01:53:16;20.00;66.80
49385;DHT22;36795;45.028;38.968;2022-09-28T01:59:42;20.00;67.00
49385;DHT22;36795;45.028;38.968;2022-09-28T02:05:47;19.90;67.60
49385;DHT22;36795;45.028;38.968;2022-09-28T02:08:50;19.90;67.90
49385;DHT22;36795;45.028;38.968;2022-09-28T02:11:46;19.80;68.00
49385;DHT22;36795;45.028;38.968;2022-09-28T02:14:37;19.80;68.10
49385;DHT22;36795;45.028;38.968;2022-09-28T02:17:25;19.80;68.10
49385;DHT22;36795;45.028;38.968;2022-09-28T02:20:12;19.80;68.20
49385;DHT22;36795;45.028;38.968;2022-09-28T02:23:00;19.80;68.10
49385;DHT22;36795;45.028;38.968;2022-09-28T02:25:49;19.90;68.10
49385;DHT22;36795;45.028;38.968;2022-09-28T02:28:38;19.90;68.00
49385;DHT22;36795;45.028;38.968;2022-09-28T02:31:26;19.90;68.20
49385;DHT22;36795;45.028;38.968;2022-09-28T02:34:13;19.90;68.30
49385;DHT22;36795;45.028;38.968;2022-09-28T02:37:00;19.90;68.40
49385;DHT22;36795;45.028;38.968;2022-09-28T02:39:46;19.90;68.40
49385;DHT22;36795;45.028;38.968;2022-09-28T02:42:45;20.00;68.40
49385;DHT22;36795;45.028;38.968;2022-09-28T02:54:54;19.90;68.70
49385;DHT22;36795;45.028;38.968;2022-09-28T03:07:30;19.70;69.40
49385;DHT22;36795;45.028;38.968;2022-09-28T03:13:14;19.70;69.70
49385;DHT22;36795;45.028;38.968;2022-09-28T03:16:15;19.70;69.90
49385;DHT22;36795;45.028;38.968;2022-09-28T03:19:02;19.60;70.30
49385;DHT22;36795;45.028;38.968;2022-09-28T03:21:48;19.60;70.50
49385;DHT22;36795;45.028;38.968;2022-09-28T03:24:35;19.50;70.60
49385;DHT22;36795;45.028;38.968;2022-09-28T03:27:20;19.50;70.90
49385;DHT22;36795;45.028;38.968;2022-09-28T03:30:08;19.50;71.00
49385;DHT22;36795;45.028;38.968;2022-09-28T03:32:59;19.50;71.00
49385;DHT22;36795;45.028;38.968;2022-09-28T03:35:47;19.60;71.00
49385;DHT22;36795;45.028;38.968;2022-09-28T03:38:34;19.60;71.00
49385;DHT22;36795;45.028;38.968;2022-09-28T03:41:23;19.60;71.10
49385;DHT22;36795;45.028;38.968;2022-09-28T03:44:09;19.60;71.10
49385;DHT22;36795;45.028;38.968;2022-09-28T03:46:56;19.50;71.20
49385;DHT22;36795;45.028;38.968;2022-09-28T03:49:42;19.50;71.30
49385;DHT22;36795;45.028;38.968;2022-09-28T03:52:28;19.40;71.30
49385;DHT22;36795;45.028;38.968;2022-09-28T03:55:14;19.50;71.30
49385;DHT22;36795;45.028;38.968;2022-09-28T03:58:01;19.50;71.20
49385;DHT22;36795;45.028;38.968;2022-09-28T04:00:48;19.50;71.20
49385;DHT22;36795;45.028;38.968;2022-09-28T04:03:34;19.50;71.20
49385;DHT22;36795;45.028;38.968;2022-09-28T04:06:21;19.50;71.20
49385;DHT22;36795;45.028;38.968;2022-09-28T04:09:08;19.60;71.10
49385;DHT22;36795;45.028;38.968;2022-09-28T04:11:54;19.70;71.60
49385;DHT22;36795;45.028;38.968;2022-09-28T04:14:40;19.70;70.90
49385;DHT22;36795;45.028;38.968;2022-09-28T04:17:26;19.80;70.90
49385;DHT22;36795;45.028;38.968;2022-09-28T04:20:13;19.80;70.80
49385;DHT22;36795;45.028;38.968;2022-09-28T04:22:59;19.80;70.80
49385;DHT22;36795;45.028;38.968;2022-09-28T04:25:51;19.80;71.00
49385;DHT22;36795;45.028;38.968;2022-09-28T04:28:37;19.80;71.20
49385;DHT22;36795;45.028;38.968;2022-09-28T04:31:50;19.80;71.00
49385;DHT22;36795;45.028;38.968;2022-09-28T04:34:43;20.00;70.70
49385;DHT22;36795;45.028;38.968;2022-09-28T04:37:30;20.00;70.60
49385;DHT22;36795;45.028;38.968;2022-09-28T04:40:25;20.10;70.50
49385;DHT22;36795;45.028;38.968;2022-09-28T04:43:12;20.10;70.40
49385;DHT22;36795;45.028;38.968;2022-09-28T04:45:58;20.10;70.40
49385;DHT22;36795;45.028;38.968;2022-09-28T04:48:46;20.30;70.30
49385;DHT22;36795;45.028;38.968;2022-09-28T04:51:33;20.40;69.80
49385;DHT22;36795;45.028;38.968;2022-09-28T04:54:19;20.30;69.70
49385;DHT22;36795;45.028;38.968;2022-09-28T04:57:05;20.30;69.80
49385;DHT22;36795;45.028;38.968;2022-09-28T04:59:51;20.40;69.80
49385;DHT22;36795;45.028;38.968;2022-09-28T05:02:37;20.50;69.70
49385;DHT22;36795;45.028;38.968;2022-09-28T05:05:29;20.60;69.60
49385;DHT22;36795;45.028;38.968;2022-09-28T05:08:16;20.60;69.50
49385;DHT22;36795;45.028;38.968;2022-09-28T05:11:09;20.60;69.30
49385;DHT22;36795;45.028;38.968;2022-09-28T05:13:55;20.70;69.30
49385;DHT22;36795;45.028;38.968;2022-09-28T05:16:44;20.70;69.00
49385;DHT22;36795;45.028;38.968;2022-09-28T05:19:34;20.70;68.80
49385;DHT22;36795;45.028;38.968;2022-09-28T05:22:21;20.80;68.80
49385;DHT22;36795;45.028;38.968;2022-09-28T05:25:08;20.80;68.80
49385;DHT22;36795;45.028;38.968;2022-09-28T05:27:57;20.80;68.90
49385;DHT22;36795;45.028;38.968;2022-09-28T05:30:45;20.80;68.80
49385;DHT22;36795;45.028;38.968;2022-09-28T05:33:34;20.80;68.70
49385;DHT22;36795;45.028;38.968;2022-09-28T05:36:20;21.00;68.50
49385;DHT22;36795;45.028;38.968;2022-09-28T05:39:07;21.20;67.90
49385;DHT22;36795;45.028;38.968;2022-09-28T05:41:55;21.50;67.10
49385;DHT22;36795;45.028;38.968;2022-09-28T05:44:43;21.90;66.30
49385;DHT22;36795;45.028;38.968;2022-09-28T05:47:30;22.50;64.70
49385;DHT22;36795;45.028;38.968;2022-09-28T05:50:17;22.60;63.60
49385;DHT22;36795;45.028;38.968;2022-09-28T05:53:07;22.40;63.50
49385;DHT22;36795;45.028;38.968;2022-09-28T05:55:58;22.20;64.00
49385;DHT22;36795;45.028;38.968;2022-09-28T05:58:45;22.10;63.90
49385;DHT22;36795;45.028;38.968;2022-09-28T06:01:33;22.20;63.90
49385;DHT22;36795;45.028;38.968;2022-09-28T06:04:19;22.10;63.80
49385;DHT22;36795;45.028;38.968;2022-09-28T06:07:06;22.10;63.70
49385;DHT22;36795;45.028;38.968;2022-09-28T06:09:53;22.10;63.40
49385;DHT22;36795;45.028;38.968;2022-09-28T06:12:40;22.20;63.30
49385;DHT22;36795;45.028;38.968;2022-09-28T06:15:29;22.20;62.90
49385;DHT22;36795;45.028;38.968;2022-09-28T06:18:16;22.30;62.60
49385;DHT22;36795;45.028;38.968;2022-09-28T06:21:05;22.30;62.30
49385;DHT22;36795;45.028;38.968;2022-09-28T06:23:55;22.30;62.00
49385;DHT22;36795;45.028;38.968;2022-09-28T06:26:41;22.20;61.90
49385;DHT22;36795;45.028;38.968;2022-09-28T06:29:27;22.30;61.40
49385;DHT22;36795;45.028;38.968;2022-09-28T06:32:15;22.40;60.80
49385;DHT22;36795;45.028;38.968;2022-09-28T06:35:03;22.40;60.50
49385;DHT22;36795;45.028;38.968;2022-09-28T06:37:50;22.40;60.40
49385;DHT22;36795;45.028;38.968;2022-09-28T06:40:36;22.30;60.70
49385;DHT22;36795;45.028;38.968;2022-09-28T06:43:24;22.30;60.70
49385;DHT22;36795;45.028;38.968;2022-09-28T06:46:19;22.30;61.10
49385;DHT22;36795;45.028;38.968;2022-09-28T06:49:13;22.30;61.40
49385;DHT22;36795;45.028;38.968;2022-09-28T06:52:04;22.30;61.40
49385;DHT22;36795;45.028;38.968;2022-09-28T06:54:55;22.40;61.50
49385;DHT22;36795;45.028;38.968;2022-09-28T06:57:42;22.50;61.30
49385;DHT22;36795;45.028;38.968;2022-09-28T07:00:31;22.70;60.80
49385;DHT22;36795;45.028;38.968;2022-09-28T07:03:20;22.80;60.20
49385;DHT22;36795;45.028;38.968;2022-09-28T07:06:11;22.90;60.10
49385;DHT22;36795;45.028;38.968;2022-09-28T07:08:59;23.20;59.40
49385;DHT22;36795;45.028;38.968;2022-09-28T07:11:48;23.30;58.30
49385;DHT22;36795;45.028;38.968;2022-09-28T07:14:35;23.40;57.70
49385;DHT22;36795;45.028;38.968;2022-09-28T07:17:22;23.50;57.10
49385;DHT22;36795;45.028;38.968;2022-09-28T07:20:09;23.60;56.30
49385;DHT22;36795;45.028;38.968;2022-09-28T07:23:00;23.60;55.70
49385;DHT22;36795;45.028;38.968;2022-09-28T07:25:47;23.60;55.30
49385;DHT22;36795;45.028;38.968;2022-09-28T07:28:38;23.60;55.30
49385;DHT22;36795;45.028;38.968;2022-09-28T07:31:26;23.60;55.00
49385;DHT22;36795;45.028;38.968;2022-09-28T07:34:12;23.60;54.40
49385;DHT22;36795;45.028;38.968;2022-09-28T07:37:04;23.50;54.30
49385;DHT22;36795;45.028;38.968;2022-09-28T07:39:52;23.40;54.40
49385;DHT22;36795;45.028;38.968;2022-09-28T07:43:06;23.40;54.50
49385;DHT22;36795;45.028;38.968;2022-09-28T07:45:53;23.20;54.60
49385;DHT22;36795;45.028;38.968;2022-09-28T07:48:40;23.00;55.10
49385;DHT22;36795;45.028;38.968;2022-09-28T07:51:27;22.90;55.40
49385;DHT22;36795;45.028;38.968;2022-09-28T07:54:14;22.80;55.70
49385;DHT22;36795;45.028;38.968;2022-09-28T07:57:01;22.80;56.10
49385;DHT22;36795;45.028;38.968;2022-09-28T07:59:48;22.70;56.70
49385;DHT22;36795;45.028;38.968;2022-09-28T08:02:36;22.70;56.90
49385;DHT22;36795;45.028;38.968;2022-09-28T08:05:23;22.80;56.90
49385;DHT22;36795;45.028;38.968;2022-09-28T08:08:09;23.00;56.60
49385;DHT22;36795;45.028;38.968;2022-09-28T08:10:57;23.10;56.70
49385;DHT22;36795;45.028;38.968;2022-09-28T08:13:43;23.40;56.00
49385;DHT22;36795;45.028;38.968;2022-09-28T08:16:31;23.80;55.30
49385;DHT22;36795;45.028;38.968;2022-09-28T08:19:17;23.90;54.60
49385;DHT22;36795;45.028;38.968;2022-09-28T08:22:07;23.80;54.50
49385;DHT22;36795;45.028;38.968;2022-09-28T08:24:57;23.70;54.60
49385;DHT22;36795;45.028;38.968;2022-09-28T08:27:44;23.90;54.70
49385;DHT22;36795;45.028;38.968;2022-09-28T08:30:30;24.00;54.10
49385;DHT22;36795;45.028;38.968;2022-09-28T08:33:17;24.00;54.00
49385;DHT22;36795;45.028;38.968;2022-09-28T08:36:25;23.80;54.20
49385;DHT22;36795;45.028;38.968;2022-09-28T08:39:13;23.50;54.80
49385;DHT22;36795;45.028;38.968;2022-09-28T08:42:30;23.30;55.10
49385;DHT22;36795;45.028;38.968;2022-09-28T08:45:21;23.30;55.60
49385;DHT22;36795;45.028;38.968;2022-09-28T08:48:32;23.30;55.70
49385;DHT22;36795;45.028;38.968;2022-09-28T08:52:04;23.20;55.70
49385;DHT22;36795;45.028;38.968;2022-09-28T08:55:15;23.30;56.00
49385;DHT22;36795;45.028;38.968;2022-09-28T08:58:26;23.20;56.30
49385;DHT22;36795;45.028;38.968;2022-09-28T09:01:17;23.30;56.50
49385;DHT22;36795;45.028;38.968;2022-09-28T09:04:06;23.30;56.30
49385;DHT22;36795;45.028;38.968;2022-09-28T09:13:56;23.60;55.40
49385;DHT22;36795;45.028;38.968;2022-09-28T09:16:52;23.70;55.40
49385;DHT22;36795;45.028;38.968;2022-09-28T09:23:07;23.70;55.20
49385;DHT22;36795;45.028;38.968;2022-09-28T09:26:48;23.70;55.30
49385;DHT22;36795;45.028;38.968;2022-09-28T09:29:36;23.70;55.20
49385;DHT22;36795;45.028;38.968;2022-09-28T09:38:54;23.70;55.50
49385;DHT22;36795;45.028;38.968;2022-09-28T09:48:02;23.90;56.20
49385;DHT22;36795;45.028;38.968;2022-09-28T09:50:54;23.90;56.10
49385;DHT22;36795;45.028;38.968;2022-09-28T09:54:03;24.00;55.80
49385;DHT22;36795;45.028;38.968;2022-09-28T09:57:04;24.10;55.50
49385;DHT22;36795;45.028;38.968;2022-09-28T10:00:00;24.10;55.40
49385;DHT22;36795;45.028;38.968;2022-09-28T10:02:59;24.20;55.30
49385;DHT22;36795;45.028;38.968;2022-09-28T10:06:04;24.50;54.70
49385;DHT22;36795;45.028;38.968;2022-09-28T10:09:01;24.60;53.80
49385;DHT22;36795;45.028;38.968;2022-09-28T10:11:49;24.70;53.20
49385;DHT22;36795;45.028;38.968;2022-09-28T10:14:36;24.80;53.10
49385;DHT22;36795;45.028;38.968;2022-09-28T10:17:23;24.80;52.90
49385;DHT22;36795;45.028;38.968;2022-09-28T10:20:16;24.90;52.50
49385;DHT22;36795;45.028;38.968;2022-09-28T10:23:12;24.80;52.10
49385;DHT22;36795;45.028;38.968;2022-09-28T10:26:05;24.80;51.60
49385;DHT22;36795;45.028;38.968;2022-09-28T10:29:01;24.70;50.90
49385;DHT22;36795;45.028;38.968;2022-09-28T10:31:49;24.60;50.90
49385;DHT22;36795;45.028;38.968;2022-09-28T10:34:36;24.70;50.90
49385;DHT22;36795;45.028;38.968;2022-09-28T10:37:23;24.70;51.00
49385;DHT22;36795;45.028;38.968;2022-09-28T10:40:44;24.80;50.90
49385;DHT22;36795;45.028;38.968;2022-09-28T10:43:37;24.90;50.80
49385;DHT22;36795;45.028;38.968;2022-09-28T10:46:25;25.10;50.50
49385;DHT22;36795;45.028;38.968;2022-09-28T10:49:15;25.80;49.80
49385;DHT22;36795;45.028;38.968;2022-09-28T10:52:03;26.50;48.20
49385;DHT22;36795;45.028;38.968;2022-09-28T10:54:55;26.40;47.90
49385;DHT22;36795;45.028;38.968;2022-09-28T10:57:46;26.30;48.00
49385;DHT22;36795;45.028;38.968;2022-09-28T11:00:45;27.10;47.90
49385;DHT22;36795;45.028;38.968;2022-09-28T11:03:58;29.10;44.60
49385;DHT22;36795;45.028;38.968;2022-09-28T11:06:45;30.30;42.60
49385;DHT22;36795;45.028;38.968;2022-09-28T11:09:35;32.50;39.90
49385;DHT22;36795;45.028;38.968;2022-09-28T11:12:33;34.30;36.70
49385;DHT22;36795;45.028;38.968;2022-09-28T11:15:32;33.70;36.60
49385;DHT22;36795;45.028;38.968;2022-09-28T11:18:29;32.40;37.80
49385;DHT22;36795;45.028;38.968;2022-09-28T11:21:29;32.50;37.40
49385;DHT22;36795;45.028;38.968;2022-09-28T11:24:21;33.70;36.30
49385;DHT22;36795;45.028;38.968;2022-09-28T11:27:19;33.70;36.20
49385;DHT22;36795;45.028;38.968;2022-09-28T11:30:27;32.10;37.60
49385;DHT22;36795;45.028;38.968;2022-09-28T11:33:28;30.30;39.70
49385;DHT22;36795;45.028;38.968;2022-09-28T11:36:30;29.10;40.50
49385;DHT22;36795;45.028;38.968;2022-09-28T11:39:53;28.20;41.80
49385;DHT22;36795;45.028;38.968;2022-09-28T11:46:29;27.10;42.60
49385;DHT22;36795;45.028;38.968;2022-09-28T11:52:29;27.40;42.90
49385;DHT22;36795;45.028;38.968;2022-09-28T11:56:08;27.90;41.90
49385;DHT22;36795;45.028;38.968;2022-09-28T11:58:41;27.90;41.90
49385;DHT22;36795;45.028;38.968;2022-09-28T12:01:39;27.50;42.40
49385;DHT22;36795;45.028;38.968;2022-09-28T12:04:38;27.20;42.80
49385;DHT22;36795;45.028;38.968;2022-09-28T12:11:44;26.80;43.00
49385;DHT22;36795;45.028;38.968;2022-09-28T12:14:01;26.50;43.30
49385;DHT22;36795;45.028;38.968;2022-09-28T12:17:04;26.40;43.30
49385;DHT22;36795;45.028;38.968;2022-09-28T12:20:21;26.30;42.00
49385;DHT22;36795;45.028;38.968;2022-09-28T12:26:04;26.10;41.60
49385;DHT22;36795;45.028;38.968;2022-09-28T12:28:56;26.10;40.90
49385;DHT22;36795;45.028;38.968;2022-09-28T12:32:20;26.10;40.50
49385;DHT22;36795;45.028;38.968;2022-09-28T12:35:38;26.10;39.40
49385;DHT22;36795;45.028;38.968;2022-09-28T12:44:55;27.50;37.70
49385;DHT22;36795;45.028;38.968;2022-09-28T12:48:29;27.40;37.50
49385;DHT22;36795;45.028;38.968;2022-09-28T12:58:34;27.50;37.00
49385;DHT22;36795;45.028;38.968;2022-09-28T13:01:38;27.50;37.00
49385;DHT22;36795;45.028;38.968;2022-09-28T13:07:33;27.10;37.40
49385;DHT22;36795;45.028;38.968;2022-09-28T13:16:36;26.80;38.30
49385;DHT22;36795;45.028;38.968;2022-09-28T13:19:49;26.70;38.60
49385;DHT22;36795;45.028;38.968;2022-09-28T13:29:08;26.50;38.50
49385;DHT22;36795;45.028;38.968;2022-09-28T13:31:57;26.40;38.60
49385;DHT22;36795;45.028;38.968;2022-09-28T13:34:47;26.30;39.00
49385;DHT22;36795;45.028;38.968;2022-09-28T13:37:35;26.20;39.30
49385;DHT22;36795;45.028;38.968;2022-09-28T13:59:25;26.30;40.00
49385;DHT22;36795;45.028;38.968;2022-09-28T14:02:50;26.30;40.70
49385;DHT22;36795;45.028;38.968;2022-09-28T14:05:49;26.20;41.50
49385;DHT22;36795;45.028;38.968;2022-09-28T14:12:00;26.10;43.20
49385;DHT22;36795;45.028;38.968;2022-09-28T14:14:49;25.90;44.00
49385;DHT22;36795;45.028;38.968;2022-09-28T14:17:49;25.80;44.50
49385;DHT22;36795;45.028;38.968;2022-09-28T14:20:45;25.80;45.10
49385;DHT22;36795;45.028;38.968;2022-09-28T14:32:55;25.20;47.40
49385;DHT22;36795;45.028;38.968;2022-09-28T14:35:47;25.10;47.80
49385;DHT22;36795;45.028;38.968;2022-09-28T14:38:36;25.00;48.30
49385;DHT22;36795;45.028;38.968;2022-09-28T14:41:48;24.90;49.00
49385;DHT22;36795;45.028;38.968;2022-09-28T14:48:12;24.70;50.10
49385;DHT22;36795;45.028;38.968;2022-09-28T14:54:23;24.50;51.50
49385;DHT22;36795;45.028;38.968;2022-09-28T14:57:29;24.40;52.20
49385;DHT22;36795;45.028;38.968;2022-09-28T15:00:20;24.40;53.00
49385;DHT22;36795;45.028;38.968;2022-09-28T15:03:10;24.30;53.60
49385;DHT22;36795;45.028;38.968;2022-09-28T15:05:58;24.20;54.20
49385;DHT22;36795;45.028;38.968;2022-09-28T15:08:43;24.10;54.70
49385;DHT22;36795;45.028;38.968;2022-09-28T15:11:29;24.10;55.20
49385;DHT22;36795;45.028;38.968;2022-09-28T15:14:15;24.00;55.50
49385;DHT22;36795;45.028;38.968;2022-09-28T15:17:10;24.00;56.10
49385;DHT22;36795;45.028;38.968;2022-09-28T15:20:23;24.00;56.20
49385;DHT22;36795;45.028;38.968;2022-09-28T15:23:33;23.90;56.30
49385;DHT22;36795;45.028;38.968;2022-09-28T15:26:31;23.80;56.60
49385;DHT22;36795;45.028;38.968;2022-09-28T15:29:20;23.80;56.90
49385;DHT22;36795;45.028;38.968;2022-09-28T15:32:23;23.70;57.10
49385;DHT22;36795;45.028;38.968;2022-09-28T15:35:17;23.70;57.40
49385;DHT22;36795;45.028;38.968;2022-09-28T15:38:10;23.60;57.60
49385;DHT22;36795;45.028;38.968;2022-09-28T15:41:03;23.60;57.90
49385;DHT22;36795;45.028;38.968;2022-09-28T15:44:05;23.50;58.10
49385;DHT22;36795;45.028;38.968;2022-09-28T15:47:09;23.50;58.40
49385;DHT22;36795;45.028;38.968;2022-09-28T15:50:02;23.40;58.70
49385;DHT22;36795;45.028;38.968;2022-09-28T15:52:59;23.40;59.00
49385;DHT22;36795;45.028;38.968;2022-09-28T15:55:49;23.40;59.30
49385;DHT22;36795;45.028;38.968;2022-09-28T15:58:36;23.30;59.60
49385;DHT22;36795;45.028;38.968;2022-09-28T16:01:34;23.30;59.90
49385;DHT22;36795;45.028;38.968;2022-09-28T16:04:47;23.30;60.10
49385;DHT22;36795;45.028;38.968;2022-09-28T16:07:51;23.20;60.10
49385;DHT22;36795;45.028;38.968;2022-09-28T16:11:03;23.20;60.40
49385;DHT22;36795;45.028;38.968;2022-09-28T16:14:05;23.10;60.70
49385;DHT22;36795;45.028;38.968;2022-09-28T16:16:52;23.00;60.80
49385;DHT22;36795;45.028;38.968;2022-09-28T16:19:39;23.00;61.10
49385;DHT22;36795;45.028;38.968;2022-09-28T16:22:28;23.00;61.80
49385;DHT22;36795;45.028;38.968;2022-09-28T16:25:23;23.00;61.80
49385;DHT22;36795;45.028;38.968;2022-09-28T16:31:33;23.00;62.20
49385;DHT22;36795;45.028;38.968;2022-09-28T16:34:24;22.90;62.30
49385;DHT22;36795;45.028;38.968;2022-09-28T16:37:35;22.80;62.50
49385;DHT22;36795;45.028;38.968;2022-09-28T16:40:22;22.90;62.60
49385;DHT22;36795;45.028;38.968;2022-09-28T16:43:19;22.80;62.80
49385;DHT22;36795;45.028;38.968;2022-09-28T16:46:17;22.80;63.00
49385;DHT22;36795;45.028;38.968;2022-09-28T16:49:05;22.70;63.30
49385;DHT22;36795;45.028;38.968;2022-09-28T16:51:52;22.70;63.40
49385;DHT22;36795;45.028;38.968;2022-09-28T16:54:38;22.70;63.70
49385;DHT22;36795;45.028;38.968;2022-09-28T16:57:45;22.70;63.80
49385;DHT22;36795;45.028;38.968;2022-09-28T17:00:34;22.70;64.00
49385;DHT22;36795;45.028;38.968;2022-09-28T17:03:21;22.60;64.10
49385;DHT22;36795;45.028;38.968;2022-09-28T17:06:10;22.60;64.30
49385;DHT22;36795;45.028;38.968;2022-09-28T17:08:58;22.60;64.50
49385;DHT22;36795;45.028;38.968;2022-09-28T17:11:44;22.50;64.70
49385;DHT22;36795;45.028;38.968;2022-09-28T17:14:30;22.50;64.80
49385;DHT22;36795;45.028;38.968;2022-09-28T17:17:17;22.50;65.00
49385;DHT22;36795;45.028;38.968;2022-09-28T17:20:19;22.40;65.00
49385;DHT22;36795;45.028;38.968;2022-09-28T17:23:06;22.50;65.30
49385;DHT22;36795;45.028;38.968;2022-09-28T17:25:57;22.40;65.30
49385;DHT22;36795;45.028;38.968;2022-09-28T17:28:43;22.40;65.30
49385;DHT22;36795;45.028;38.968;2022-09-28T17:31:30;22.40;65.30
49385;DHT22;36795;45.028;38.968;2022-09-28T17:34:16;22.40;65.40
49385;DHT22;36795;45.028;38.968;2022-09-28T17:37:10;22.40;65.30
49385;DHT22;36795;45.028;38.968;2022-09-28T17:39:57;22.40;65.30
49385;DHT22;36795;45.028;38.968;2022-09-28T17:42:44;22.40;65.40
49385;DHT22;36795;45.028;38.968;2022-09-28T17:45:33;22.30;65.40
49385;DHT22;36795;45.028;38.968;2022-09-28T17:48:23;22.40;65.50
49385;DHT22;36795;45.028;38.968;2022-09-28T17:51:10;22.40;65.60
49385;DHT22;36795;45.028;38.968;2022-09-28T17:53:57;22.30;65.60
49385;DHT22;36795;45.028;38.968;2022-09-28T17:56:45;22.30;65.60
49385;DHT22;36795;45.028;38.968;2022-09-28T17:59:32;22.30;65.60
49385;DHT22;36795;45.028;38.968;2022-09-28T18:02:17;22.30;65.70
49385;DHT22;36795;45.028;38.968;2022-09-28T18:05:04;22.30;65.80
49385;DHT22;36795;45.028;38.968;2022-09-28T18:07:50;22.30;66.00
49385;DHT22;36795;45.028;38.968;2022-09-28T18:10:40;22.20;66.00
49385;DHT22;36795;45.028;38.968;2022-09-28T18:13:27;22.20;66.20
49385;DHT22;36795;45.028;38.968;2022-09-28T18:16:15;22.20;66.40
49385;DHT22;36795;45.028;38.968;2022-09-28T18:19:01;22.20;66.40
49385;DHT22;36795;45.028;38.968;2022-09-28T18:21:47;22.20;66.30
49385;DHT22;36795;45.028;38.968;2022-09-28T18:24:33;22.20;66.50
49385;DHT22;36795;45.028;38.968;2022-09-28T18:27:20;22.20;66.50
49385;DHT22;36795;45.028;38.968;2022-09-28T18:30:06;22.20;66.40
49385;DHT22;36795;45.028;38.968;2022-09-28T18:32:54;22.20;66.30
49385;DHT22;36795;45.028;38.968;2022-09-28T18:35:48;22.10;66.30
49385;DHT22;36795;45.028;38.968;2022-09-28T18:38:41;22.10;66.20
49385;DHT22;36795;45.028;38.968;2022-09-28T18:41:32;22.10;66.30
49385;DHT22;36795;45.028;38.968;2022-09-28T18:44:19;22.10;66.30
49385;DHT22;36795;45.028;38.968;2022-09-28T18:47:05;22.10;66.30
49385;DHT22;36795;45.028;38.968;2022-09-28T18:49:51;22.10;66.30
49385;DHT22;36795;45.028;38.968;2022-09-28T18:52:38;22.10;66.20
49385;DHT22;36795;45.028;38.968;2022-09-28T18:55:24;22.10;66.00
49385;DHT22;36795;45.028;38.968;2022-09-28T18:58:11;22.10;66.00
49385;DHT22;36795;45.028;38.968;2022-09-28T19:00:58;22.10;65.90
49385;DHT22;36795;45.028;38.968;2022-09-28T19:03:44;22.00;65.80
49385;DHT22;36795;45.028;38.968;2022-09-28T19:06:31;22.00;65.90
49385;DHT22;36795;45.028;38.968;2022-09-28T19:09:20;22.00;66.00
49385;DHT22;36795;45.028;38.968;2022-09-28T19:12:06;21.90;66.00
49385;DHT22;36795;45.028;38.968;2022-09-28T19:14:52;21.90;65.90
49385;DHT22;36795;45.028;38.968;2022-09-28T19:17:38;21.90;65.80
49385;DHT22;36795;45.028;38.968;2022-09-28T19:20:24;22.00;65.80
49385;DHT22;36795;45.028;38.968;2022-09-28T19:23:11;22.00;65.80
49385;DHT22;36795;45.028;38.968;2022-09-28T19:26:22;22.00;65.70
49385;DHT22;36795;45.028;38.968;2022-09-28T19:29:08;22.00;65.70
49385;DHT22;36795;45.028;38.968;2022-09-28T19:31:54;21.90;65.70
49385;DHT22;36795;45.028;38.968;2022-09-28T19:34:41;21.90;65.70
49385;DHT22;36795;45.028;38.968;2022-09-28T19:37:27;21.90;65.70
49385;DHT22;36795;45.028;38.968;2022-09-28T19:40:13;21.90;65.50
49385;DHT22;36795;45.028;38.968;2022-09-28T19:42:59;21.90;65.50
49385;DHT22;36795;45.028;38.968;2022-09-28T19:45:51;21.90;65.50
49385;DHT22;36795;45.028;38.968;2022-09-28T19:48:37;21.90;65.50
49385;DHT22;36795;45.028;38.968;2022-09-28T19:51:26;21.90;65.60
49385;DHT22;36795;45.028;38.968;2022-09-28T19:54:13;21.90;65.70
49385;DHT22;36795;45.028;38.968;2022-09-28T19:57:00;21.80;65.70
49385;DHT22;36795;45.028;38.968;2022-09-28T19:59:52;21.80;65.80
49385;DHT22;36795;45.028;38.968;2022-09-28T20:02:39;21.80;65.90
49385;DHT22;36795;45.028;38.968;2022-09-28T20:05:25;21.80;66.00
49385;DHT22;36795;45.028;38.968;2022-09-28T20:08:11;21.80;65.90
49385;DHT22;36795;45.028;38.968;2022-09-28T20:10:59;21.80;66.00